Time;durP1;ratioP1;P1;durP2;ratioP2;P2;SDS_P1;SDS_P2;PMS_P1;PMS_P2;Temp;Humidity;BMP_temperature;BMP_pressure;BME280_temperature;BME280_humidity;BME280_pressure;Samples;Min_cycle;Max_cycle;Signal;HPM_P1;HPM_P2
2022/11/06 00:00:07;;;;;;;9.37;3.47;;;;;;;8.45;98.88;101301.63;5099422;28;20092;-87
2022/11/06 00:02:35;;;;;;;8.75;3.45;;;;;;;8.46;98.62;101295.16;5133700;27;20385;-87
2022/11/06 00:07:46;;;;;;;12.50;4.03;;;;;;;8.34;99.20;101295.63;5117583;28;20218;-86
2022/11/06 00:10:12;;;;;;;12.57;3.33;;;;;;;8.31;99.63;101296.03;5115880;28;20050;-87
2022/11/06 00:12:43;;;;;;;8.40;3.67;;;;;;;8.22;99.59;101299.84;5116117;28;20031;-87
2022/11/06 00:15:09;;;;;;;11.63;3.33;;;;;;;8.23;99.74;101293.41;5117084;28;20040;-87
2022/11/06 00:17:39;;;;;;;12.35;3.28;;;;;;;8.22;99.48;101289.03;5115951;28;20092;-87
2022/11/06 00:20:06;;;;;;;11.13;3.67;;;;;;;8.19;99.40;101294.81;5116242;28;20491;-87
2022/11/06 00:22:43;;;;;;;;;;;;;;;;;;;;;
2022/11/06 00:25:12;;;;;;;9.83;3.03;;;;;;;8.15;99.74;101288.97;5117353;28;20531;-87
2022/11/06 00:27:48;;;;;;;12.35;2.88;;;;;;;8.12;99.99;101299.28;5116401;28;20055;-87
2022/11/06 00:30:19;;;;;;;6.63;2.90;;;;;;;8.08;100.00;101291.56;5117283;28;20028;-87
2022/11/06 00:32:56;;;;;;;9.18;2.78;;;;;;;8.02;100.00;101296.91;5117292;28;20486;-87
2022/11/06 00:35:33;;;;;;;15.63;3.13;;;;;;;8.03;100.00;101294.00;5115227;28;20027;-87
2022/11/06 00:37:59;;;;;;;11.03;2.70;;;;;;;7.97;100.00;101275.84;5115335;28;20046;-86
2022/11/06 00:40:24;;;;;;;8.82;3.03;;;;;;;8.02;100.00;101269.88;5115235;28;20063;-87
2022/11/06 00:42:53;;;;;;;13.17;3.10;;;;;;;8.02;100.00;101262.59;5115565;28;20096;-87
2022/11/06 00:45:19;;;;;;;7.28;2.80;;;;;;;8.05;100.00;101255.97;5132536;27;20057;-87
2022/11/06 00:47:47;;;;;;;10.43;3.67;;;;;;;8.07;100.00;101256.63;5115051;28;20028;-86
2022/11/06 00:50:13;;;;;;;9.88;3.10;;;;;;;8.09;100.00;101262.69;5115337;28;20395;-86
2022/11/06 00:52:40;;;;;;;9.45;2.63;;;;;;;8.08;100.00;101258.31;5115234;28;20040;-86
2022/11/06 00:55:16;;;;;;;6.85;2.50;;;;;;;8.07;100.00;101264.72;5115887;28;20127;-86
2022/11/06 00:57:49;;;;;;;7.80;2.53;;;;;;;8.02;100.00;101262.59;5114950;28;20039;-87
2022/11/06 01:00:26;;;;;;;12.00;2.85;;;;;;;8.01;100.00;101268.19;5114776;28;20472;-87
2022/11/06 01:02:54;;;;;;;8.85;2.55;;;;;;;8.02;100.00;101269.88;5132575;27;20444;-87
2022/11/06 01:05:20;;;;;;;7.45;2.53;;;;;;;7.94;100.00;101278.91;5113842;28;20040;-87
2022/11/06 01:07:46;;;;;;;9.85;3.17;;;;;;;7.91;100.00;101273.88;5114668;28;20539;-87
2022/11/06 01:10:14;;;;;;;6.83;2.30;;;;;;;7.87;100.00;101270.72;5116437;28;20043;-87
2022/11/06 01:12:42;;;;;;;8.25;2.50;;;;;;;7.84;100.00;101264.84;5098559;28;20032;-87
2022/11/06 01:15:08;;;;;;;9.10;2.67;;;;;;;7.80;100.00;101275.19;5115694;28;20474;-86
2022/11/06 01:17:41;;;;;;;8.35;3.05;;;;;;;7.83;100.00;101266.72;5098283;28;20044;-86
2022/11/06 01:20:07;;;;;;;11.03;2.50;;;;;;;7.77;100.00;101262.06;5115001;28;20482;-86
2022/11/06 01:22:49;;;;;;;9.30;2.30;;;;;;;7.78;100.00;101265.59;5132077;27;20035;-87
2022/11/06 01:25:26;;;;;;;;;;;;;;;;;;;;;
2022/11/06 01:27:58;;;;;;;9.15;2.90;;;;;;;7.86;100.00;101255.53;5130455;27;20047;-87
2022/11/06 01:30:30;;;;;;;17.48;2.45;;;;;;;7.93;100.00;101252.06;5097156;28;20047;-87
2022/11/06 01:32:58;;;;;;;11.97;2.33;;;;;;;7.95;100.00;101239.22;5113921;28;20422;-87
2022/11/06 01:35:42;;;;;;;6.30;2.50;;;;;;;8.01;100.00;101246.56;5131250;27;20039;-87
2022/11/06 01:38:08;;;;;;;8.68;2.10;;;;;;;8.07;100.00;101243.97;5114718;28;20082;-86
2022/11/06 01:40:42;;;;;;;9.83;2.23;;;;;;;8.06;100.00;101242.28;5114222;28;20473;-87
2022/11/06 01:43:14;;;;;;;8.98;2.00;;;;;;;8.10;100.00;101231.91;5131247;27;20487;-86
2022/11/06 01:45:41;;;;;;;7.65;2.22;;;;;;;8.10;100.00;101229.22;5131751;27;20119;-86
2022/11/06 01:48:13;;;;;;;7.13;2.20;;;;;;;8.16;100.00;101238.44;5115201;28;20070;-87
2022/11/06 01:50:42;;;;;;;6.85;2.00;;;;;;;8.18;100.00;101242.63;5114492;28;20036;-88
2022/11/06 01:53:08;;;;;;;11.73;2.57;;;;;;;8.29;100.00;101232.34;5114888;28;20122;-86
2022/11/06 01:55:39;;;;;;;8.90;2.05;;;;;;;8.27;100.00;101229.84;5115055;28;20440;-87
2022/11/06 01:58:08;;;;;;;11.25;2.15;;;;;;;8.26;100.00;101226.28;5115174;28;20045;-87
2022/11/06 02:00:37;;;;;;;6.65;2.13;;;;;;;8.29;100.00;101221.53;5130988;27;20059;-87
2022/11/06 02:03:17;;;;;;;9.15;2.00;;;;;;;8.31;100.00;101214.06;5114801;28;20088;-87
2022/11/06 02:05:52;;;;;;;7.75;2.22;;;;;;;8.40;99.44;101218.31;5114188;28;20388;-86
2022/11/06 02:08:20;;;;;;;10.50;1.92;;;;;;;8.40;99.63;101226.41;5113875;28;20047;-87
2022/11/06 02:10:47;;;;;;;11.50;1.73;;;;;;;8.41;99.30;101220.00;5113484;28;20035;-87
2022/11/06 02:13:18;;;;;;;9.07;2.00;;;;;;;8.49;99.33;101219.91;5114633;28;20476;-87
2022/11/06 02:16:02;;;;;;;8.33;2.10;;;;;;;8.47;99.48;101216.53;5113114;28;20061;-86
2022/11/06 02:18:33;;;;;;;6.22;1.70;;;;;;;8.50;99.20;101216.16;5114888;28;20090;-87
2022/11/06 02:21:20;;;;;;;8.52;2.22;;;;;;;8.50;99.19;101218.84;5114443;28;20043;-87
2022/11/06 02:24:13;;;;;;;7.13;2.25;;;;;;;8.52;98.49;101200.59;5115078;28;20047;-86
2022/11/06 02:27:09;;;;;;;3.45;1.38;;;;;;;8.46;99.11;101204.06;5112952;28;20514;-87
2022/11/06 02:29:40;;;;;;;9.40;2.30;;;;;;;8.42;99.01;101206.28;5130929;27;20035;-86
2022/11/06 02:32:25;;;;;;;10.00;1.80;;;;;;;8.37;99.30;101192.50;5113316;28;20039;-86
2022/11/06 02:34:57;;;;;;;6.97;1.85;;;;;;;8.33;99.82;101193.09;5114626;28;20032;-86
2022/11/06 02:37:29;;;;;;;10.02;1.92;;;;;;;8.28;99.94;101193.66;5113656;28;20040;-87
2022/11/06 02:39:57;;;;;;;9.23;1.85;;;;;;;8.26;99.97;101193.84;5113028;28;20043;-86
2022/11/06 02:42:27;;;;;;;10.32;2.00;;;;;;;8.26;100.00;101184.91;5130053;27;20098;-88
2022/11/06 02:44:59;;;;;;;9.18;2.13;;;;;;;8.25;100.00;101185.91;5130051;27;20038;-87
2022/11/06 02:47:32;;;;;;;6.10;2.00;;;;;;;8.29;100.00;101189.91;5114770;28;20097;-87
2022/11/06 02:50:08;;;;;;;8.68;1.60;;;;;;;8.27;100.00;101181.19;5130572;27;20074;-87
2022/11/06 02:52:40;;;;;;;14.07;1.98;;;;;;;8.30;100.00;101185.34;5115010;28;20063;-87
2022/11/06 02:55:13;;;;;;;5.88;2.00;;;;;;;8.32;100.00;101197.66;5113359;28;20552;-87
2022/11/06 02:57:50;;;;;;;10.65;2.10;;;;;;;8.22;100.00;101187.16;5113271;28;20059;-87
2022/11/06 03:00:18;;;;;;;5.65;2.00;;;;;;;8.23;100.00;101185.28;5113315;28;20051;-86
2022/11/06 03:03:27;;;;;;;9.13;1.80;;;;;;;8.23;100.00;101185.28;5113173;28;20035;-87
2022/11/06 03:06:11;;;;;;;9.02;2.00;;;;;;;8.27;100.00;101205.50;5051245;28;20037;-86
2022/11/06 03:08:46;;;;;;;5.13;2.30;;;;;;;8.31;100.00;101214.06;5111390;28;20044;-87
2022/11/06 03:11:21;;;;;;;11.75;1.88;;;;;;;8.34;100.00;101210.97;5112957;28;20075;-86
2022/11/06 03:14:08;;;;;;;7.95;1.95;;;;;;;8.40;100.00;101219.16;5113895;28;20031;-87
2022/11/06 03:16:54;;;;;;;7.32;1.90;;;;;;;8.53;99.59;101201.41;5114125;28;20032;-87
2022/11/06 03:19:36;;;;;;;8.75;2.17;;;;;;;8.44;99.94;101187.19;5114186;28;20459;-87
2022/11/06 03:22:18;;;;;;;7.70;2.00;;;;;;;8.47;99.81;101186.78;5112883;28;20031;-87
2022/11/06 03:25:07;;;;;;;7.85;1.67;;;;;;;8.39;100.00;101176.09;5113507;28;20086;-86
2022/11/06 03:28:01;;;;;;;8.43;1.90;;;;;;;8.42;100.00;101171.13;5111896;28;20043;-87
2022/11/06 03:30:41;;;;;;;9.75;2.00;;;;;;;8.33;100.00;101168.75;5114367;28;20043;-87
2022/11/06 03:33:10;;;;;;;6.63;1.75;;;;;;;8.33;100.00;101164.19;5134439;27;20118;-87
2022/11/06 03:35:54;;;;;;;4.63;1.50;;;;;;;8.22;100.00;101156.56;5116830;28;20035;-87
2022/11/06 03:38:26;;;;;;;7.90;1.77;;;;;;;8.24;100.00;101159.94;5118403;28;20086;-87
2022/11/06 03:41:02;;;;;;;8.73;1.88;;;;;;;8.22;100.00;101160.13;5116412;28;20036;-87
2022/11/06 03:43:34;;;;;;;10.63;1.92;;;;;;;8.22;100.00;101152.03;5116801;28;20040;-87
2022/11/06 03:46:03;;;;;;;5.45;1.60;;;;;;;8.24;100.00;101143.72;5118852;28;20032;-87
2022/11/06 03:48:35;;;;;;;9.43;2.00;;;;;;;8.26;100.00;101142.47;5117618;28;20067;-87
2022/11/06 03:51:09;;;;;;;7.22;1.73;;;;;;;8.29;100.00;101129.63;5116593;28;20044;-87
2022/11/06 03:53:41;;;;;;;8.95;2.10;;;;;;;8.32;100.00;101132.75;5116678;28;20038;-87
2022/11/06 03:56:15;;;;;;;11.98;2.20;;;;;;;8.33;100.00;101126.31;5116232;28;20131;-87
2022/11/06 03:58:47;;;;;;;6.35;1.83;;;;;;;8.34;100.00;101116.34;5116410;28;20035;-87
2022/11/06 04:01:15;;;;;;;8.87;1.70;;;;;;;8.37;100.00;101119.50;5133442;27;20042;-88
2022/11/06 04:03:57;;;;;;;8.20;1.70;;;;;;;8.38;100.00;101115.75;5134171;27;20039;-87
2022/11/06 04:06:45;;;;;;;9.23;2.33;;;;;;;8.44;100.00;101116.88;5133166;27;20040;-87
2022/11/06 04:14:57;;;;;;;7.60;1.63;;;;;;;8.45;100.00;101113.16;5117646;28;20185;-86
2022/11/06 04:17:27;;;;;;;7.72;1.77;;;;;;;8.46;100.00;101111.28;5132899;27;20407;-87
2022/11/06 04:20:03;;;;;;;10.55;1.65;;;;;;;8.43;100.00;101097.09;5117236;28;20387;-86
2022/11/06 04:23:12;;;;;;;10.27;1.70;;;;;;;8.47;100.00;101102.97;5132822;27;20039;-87
2022/11/06 04:28:39;;;;;;;5.90;1.45;;;;;;;8.39;100.00;101090.41;5116971;28;20046;-87
2022/11/06 04:31:18;;;;;;;10.52;2.10;;;;;;;8.35;100.00;101083.69;5116764;28;20051;-86
2022/11/06 04:34:20;;;;;;;8.85;1.77;;;;;;;8.33;100.00;101085.78;5115898;28;20039;-87
2022/11/06 04:36:54;;;;;;;8.40;1.98;;;;;;;8.25;100.00;101089.47;5106640;28;20048;-87
2022/11/06 04:39:34;;;;;;;8.18;2.30;;;;;;;8.23;100.00;101087.97;5115178;28;20039;-87
2022/11/06 04:42:24;;;;;;;6.95;1.70;;;;;;;8.18;100.00;101077.75;5115847;28;20388;-87
2022/11/06 04:44:59;;;;;;;7.05;1.98;;;;;;;8.21;100.00;101088.16;5116828;28;20535;-87
2022/11/06 04:47:27;;;;;;;4.85;1.80;;;;;;;8.29;100.00;101078.25;5132954;27;20047;-87
2022/11/06 04:50:01;;;;;;;5.32;1.67;;;;;;;8.26;100.00;101076.78;5116560;28;20127;-87
2022/11/06 04:52:30;;;;;;;6.85;1.90;;;;;;;8.30;100.00;101080.75;5133398;27;20047;-86
2022/11/06 04:55:05;;;;;;;11.20;2.10;;;;;;;8.26;100.00;101072.19;5115914;28;20045;-87
2022/11/06 04:57:33;;;;;;;5.90;1.60;;;;;;;8.23;100.00;101075.28;5132235;27;20031;-87
2022/11/06 05:00:01;;;;;;;3.97;1.60;;;;;;;8.21;100.00;101071.94;5131796;27;20043;-87
2022/11/06 05:02:31;;;;;;;11.85;2.10;;;;;;;8.19;100.00;101065.06;5098022;28;20071;-87
2022/11/06 05:04:59;;;;;;;6.70;1.65;;;;;;;8.18;100.00;101063.38;5132559;27;20472;-87
2022/11/06 05:07:27;;;;;;;7.03;2.00;;;;;;;8.18;100.00;101061.53;5116600;28;20521;-87
2022/11/06 05:09:55;;;;;;;5.95;2.03;;;;;;;8.17;100.00;101069.84;5115921;28;20532;-87
2022/11/06 05:12:21;;;;;;;10.45;2.03;;;;;;;8.16;100.00;101065.44;5132516;27;20039;-86
2022/11/06 05:14:46;;;;;;;6.80;2.47;;;;;;;8.14;100.00;101057.53;5114974;28;20414;-87
2022/11/06 05:17:12;;;;;;;5.67;2.00;;;;;;;8.15;100.00;101045.69;5132004;27;20429;-87
2022/11/06 05:19:37;;;;;;;5.90;2.10;;;;;;;8.15;100.00;101048.41;5097896;28;20278;-87
2022/11/06 05:24:54;;;;;;;5.15;1.80;;;;;;;8.13;100.00;101049.63;5116562;28;20498;-87
2022/11/06 05:27:20;;;;;;;6.65;2.10;;;;;;;8.06;100.00;101045.00;5116280;28;20528;-87
2022/11/06 05:29:47;;;;;;;8.10;1.80;;;;;;;8.14;100.00;101051.31;5114114;28;20127;-87
2022/11/06 05:32:15;;;;;;;6.70;2.00;;;;;;;8.11;100.00;101049.81;5114476;28;20088;-87
2022/11/06 05:34:45;;;;;;;11.10;2.15;;;;;;;8.14;100.00;101046.72;5115636;28;20040;-87
2022/11/06 05:37:11;;;;;;;5.45;1.70;;;;;;;8.10;100.00;101047.31;5114619;28;20036;-87
2022/11/06 05:39:39;;;;;;;7.85;1.63;;;;;;;8.05;100.00;101042.50;5114362;28;20055;-87
2022/11/06 05:42:07;;;;;;;9.20;2.20;;;;;;;8.06;100.00;101036.03;5114017;28;20035;-87
2022/11/06 05:44:37;;;;;;;6.03;1.60;;;;;;;8.06;100.00;101036.03;5115555;28;20042;-86
2022/11/06 05:47:15;;;;;;;;;;;;;;;;;;;;;
2022/11/06 05:49:40;;;;;;;5.78;2.80;;;;;;;8.10;100.00;101033.78;5115843;28;20505;-87
2022/11/06 05:52:06;;;;;;;8.07;2.07;;;;;;;8.12;100.00;101029.88;5114947;28;20118;-87
2022/11/06 05:54:34;;;;;;;4.80;1.77;;;;;;;8.13;100.00;101030.69;5131073;27;20059;-86
2022/11/06 05:56:59;;;;;;;6.28;1.60;;;;;;;8.11;100.00;101039.00;5114037;28;20061;-86
2022/11/06 05:59:25;;;;;;;6.30;1.67;;;;;;;8.11;100.00;101025.50;5115046;27;20047;-86
2022/11/06 06:01:58;;;;;;;4.88;1.67;;;;;;;8.12;100.00;101015.50;5130310;27;20039;-86
2022/11/06 06:04:27;;;;;;;4.57;1.77;;;;;;;8.12;100.00;101024.47;5113770;28;20503;-87
2022/11/06 06:06:53;;;;;;;5.75;2.00;;;;;;;8.10;100.00;101028.38;5113890;28;20040;-86
2022/11/06 06:09:25;;;;;;;7.30;1.83;;;;;;;8.08;100.00;101023.19;5113482;28;20035;-87
2022/11/06 06:11:54;;;;;;;11.32;2.10;;;;;;;8.05;100.00;101029.81;5130137;27;20036;-87
2022/11/06 06:14:22;;;;;;;7.95;2.00;;;;;;;8.10;100.00;101021.09;5115086;28;20054;-87
2022/11/06 06:16:48;;;;;;;8.02;1.73;;;;;;;8.04;100.00;101014.63;5113323;28;20036;-86
2022/11/06 06:22:19;;;;;;;8.88;1.40;;;;;;;8.03;100.00;101007.56;5059620;28;20460;-87
2022/11/06 06:24:54;;;;;;;4.73;1.60;;;;;;;8.01;100.00;100998.78;5113760;28;20050;-87
2022/11/06 06:27:41;;;;;;;8.02;1.83;;;;;;;8.00;100.00;101001.69;5114381;28;20035;-86
2022/11/06 06:30:39;;;;;;;12.82;1.88;;;;;;;8.05;100.00;101013.59;5113281;28;20047;-87
2022/11/06 06:33:08;;;;;;;11.32;1.83;;;;;;;8.04;100.00;101014.63;5112488;28;20395;-86
2022/11/06 06:35:54;;;;;;;6.97;1.80;;;;;;;8.15;100.00;101015.13;5130969;27;20435;-87
2022/11/06 06:38:41;;;;;;;;;;;;;;;;;;;;;
2022/11/06 06:41:12;;;;;;;6.63;1.40;;;;;;;8.16;100.00;101022.19;5115347;28;20034;-87
2022/11/06 06:43:48;;;;;;;6.60;1.33;;;;;;;8.24;100.00;101031.00;5114643;28;20038;-87
2022/11/06 06:46:17;;;;;;;6.53;2.03;;;;;;;8.31;100.00;101027.50;5114603;28;20356;-87
2022/11/06 06:48:48;;;;;;;8.25;1.48;;;;;;;8.30;100.00;101026.69;5112794;28;20039;-87
2022/11/06 06:51:27;;;;;;;;;;;;;;;;;;;;;
2022/11/06 06:53:52;;;;;;;4.97;1.90;;;;;;;8.32;100.00;101016.50;5115316;28;20046;-87
2022/11/06 06:56:52;;;;;;;7.25;1.45;;;;;;;8.35;100.00;101012.59;5112898;28;20126;-86
2022/11/06 06:59:20;;;;;;;7.03;1.20;;;;;;;8.39;100.00;100997.66;5109870;28;20063;-87
2022/11/06 07:01:48;;;;;;;9.85;1.70;;;;;;;8.48;100.00;100999.19;5112036;28;20487;-85
2022/11/06 07:04:19;;;;;;;6.53;1.50;;;;;;;8.52;100.00;101005.88;5112317;28;20047;-88
2022/11/06 07:06:55;;;;;;;4.43;1.55;;;;;;;8.58;100.00;101004.25;5112713;28;20054;-88
2022/11/06 07:09:28;;;;;;;6.30;1.60;;;;;;;8.69;100.00;101011.78;5112601;28;20036;-89
2022/11/06 07:11:56;;;;;;;8.13;2.33;;;;;;;8.74;100.00;101009.34;5130116;28;20043;-89
2022/11/06 07:14:22;;;;;;;5.10;1.63;;;;;;;8.84;100.00;101014.38;5113643;28;20043;-89
2022/11/06 07:16:47;;;;;;;5.23;1.60;;;;;;;8.89;100.00;100997.56;5112735;28;20414;-89
2022/11/06 07:19:15;;;;;;;3.53;1.38;;;;;;;8.96;100.00;100998.41;5112782;28;20032;-86
2022/11/06 07:21:43;;;;;;;6.20;1.42;;;;;;;9.02;100.00;100999.47;5129864;28;20126;-88
2022/11/06 07:24:08;;;;;;;6.82;1.75;;;;;;;9.09;100.00;101003.06;5112408;28;20036;-88
2022/11/06 07:26:34;;;;;;;11.20;2.20;;;;;;;9.16;99.89;100990.38;5112378;28;20023;-87
2022/11/06 07:29:05;;;;;;;7.23;1.33;;;;;;;9.28;99.29;101004.16;5113805;28;20136;-87
2022/11/06 07:31:31;;;;;;;6.15;1.88;;;;;;;9.33;98.70;101001.69;5129856;28;20075;-86
2022/11/06 07:33:59;;;;;;;5.37;1.27;;;;;;;9.38;98.71;100999.19;5112095;28;20450;-87
2022/11/06 07:36:29;;;;;;;5.47;1.25;;;;;;;9.43;98.12;101009.41;5112630;28;20422;-86
2022/11/06 07:38:54;;;;;;;8.23;1.47;;;;;;;9.46;98.02;101003.59;5114442;28;20035;-85
2022/11/06 07:41:22;;;;;;;5.00;1.00;;;;;;;9.54;97.44;101010.72;5113489;28;20085;-86
2022/11/06 07:43:48;;;;;;;7.60;1.80;;;;;;;9.55;97.56;100988.84;5129867;28;20130;-85
2022/11/06 07:46:14;;;;;;;6.68;1.25;;;;;;;9.59;97.43;100975.72;5113558;28;20039;-88
2022/11/06 07:48:45;;;;;;;8.43;1.25;;;;;;;9.69;97.09;100984.28;5112294;28;20036;-87
2022/11/06 07:51:10;;;;;;;10.03;1.33;;;;;;;9.70;96.93;100976.97;5112407;28;20032;-88
2022/11/06 07:53:37;;;;;;;5.47;1.40;;;;;;;9.74;96.51;100968.22;5112362;28;20432;-87
2022/11/06 07:56:05;;;;;;;4.53;1.00;;;;;;;9.80;95.86;100971.97;5129338;28;20031;-87
2022/11/06 07:58:34;;;;;;;6.43;1.40;;;;;;;9.82;95.87;100961.78;5113141;28;20032;-86
2022/11/06 08:01:00;;;;;;;5.43;1.27;;;;;;;9.86;95.69;100963.00;5113150;28;20048;-87
2022/11/06 08:03:28;;;;;;;6.88;1.40;;;;;;;9.89;95.75;100967.19;5113667;27;20399;-87
2022/11/06 08:05:57;;;;;;;4.80;1.30;;;;;;;9.88;95.68;100965.53;5129463;28;20487;-87
2022/11/06 08:08:30;;;;;;;6.23;1.67;;;;;;;9.94;95.54;100968.25;5129714;28;20093;-87
2022/11/06 08:11:04;;;;;;;4.85;1.33;;;;;;;9.96;94.83;100974.28;5113658;27;20075;-87
2022/11/06 08:13:32;;;;;;;4.30;1.40;;;;;;;9.99;94.91;100967.59;5113456;28;20035;-87
2022/11/06 08:15:58;;;;;;;5.28;1.30;;;;;;;10.04;94.52;100969.69;5117281;28;20038;-87
2022/11/06 08:18:26;;;;;;;8.50;1.83;;;;;;;10.10;94.17;100968.88;5115579;28;20023;-87
2022/11/06 08:20:54;;;;;;;3.65;0.98;;;;;;;10.13;94.10;100973.88;5132954;27;20047;-87
2022/11/06 08:23:22;;;;;;;6.32;1.45;;;;;;;10.11;94.07;100957.81;5115838;28;20080;-87
2022/11/06 08:25:56;;;;;;;3.28;1.00;;;;;;;10.21;93.39;100961.97;5115537;28;20042;-87
2022/11/06 08:28:23;;;;;;;6.43;1.40;;;;;;;10.26;92.94;100957.59;5115168;28;20052;-87
2022/11/06 08:30:49;;;;;;;5.83;0.93;;;;;;;10.28;93.17;100952.78;5132599;27;20039;-87
2022/11/06 08:33:17;;;;;;;4.63;1.00;;;;;;;10.43;92.64;100949.88;5116704;28;20027;-87
2022/11/06 08:35:48;;;;;;;3.88;0.90;;;;;;;10.55;92.26;100941.91;5115824;28;20064;-87
2022/11/06 08:38:16;;;;;;;6.70;1.40;;;;;;;10.63;90.90;100947.13;5132059;27;20043;-87
2022/11/06 08:40:41;;;;;;;5.93;1.30;;;;;;;10.69;90.89;100945.44;5115298;28;20494;-87
2022/11/06 08:43:09;;;;;;;5.45;1.52;;;;;;;10.75;90.70;100946.44;5098943;28;20044;-87
2022/11/06 08:45:39;;;;;;;7.00;1.10;;;;;;;10.81;89.75;100945.59;5115500;28;20498;-87
2022/11/06 08:48:06;;;;;;;5.10;0.87;;;;;;;10.80;89.26;100930.34;5114932;28;20375;-87
2022/11/06 08:50:38;;;;;;;3.72;0.98;;;;;;;10.82;89.16;100934.53;5115051;28;20130;-88
2022/11/06 08:53:05;;;;;;;4.97;1.20;;;;;;;10.83;89.12;100929.91;5115448;28;20044;-87
2022/11/06 08:55:34;;;;;;;3.30;1.05;;;;;;;10.89;88.71;100918.19;5115474;28;20184;-87
2022/11/06 08:58:00;;;;;;;5.55;1.30;;;;;;;11.05;88.08;100923.13;5132347;27;20035;-87
2022/11/06 09:00:26;;;;;;;6.50;1.30;;;;;;;11.15;87.34;100917.22;5114783;28;20042;-88
2022/11/06 09:03:00;;;;;;;5.45;1.00;;;;;;;11.29;87.81;100922.59;5114663;28;20085;-86
2022/11/06 09:05:26;;;;;;;6.67;1.30;;;;;;;11.31;86.93;100909.59;5115541;28;20046;-86
2022/11/06 09:08:01;;;;;;;5.53;1.50;;;;;;;11.26;86.37;100904.84;5114745;28;20058;-86
2022/11/06 09:10:27;;;;;;;3.15;1.02;;;;;;;11.25;85.89;100897.75;5115784;28;20500;-86
2022/11/06 09:12:54;;;;;;;6.72;1.20;;;;;;;11.22;86.52;100896.31;5114879;28;20046;-87
2022/11/06 09:15:20;;;;;;;5.93;1.30;;;;;;;11.28;86.23;100893.75;5116168;27;20031;-87
2022/11/06 09:17:47;;;;;;;3.70;1.00;;;;;;;11.33;86.12;100896.66;5131655;27;20043;-87
2022/11/06 09:20:17;;;;;;;5.22;1.30;;;;;;;11.34;85.91;100887.47;5131518;27;20136;-87
2022/11/06 09:22:43;;;;;;;11.05;1.38;;;;;;;11.35;84.97;100883.69;5115714;27;20517;-87
2022/11/06 09:25:20;;;;;;;4.27;0.97;;;;;;;11.35;85.05;100873.66;5113800;28;20505;-87
2022/11/06 09:27:51;;;;;;;5.80;0.88;;;;;;;11.48;84.59;100867.28;5114659;28;20061;-87
2022/11/06 09:30:19;;;;;;;3.50;0.80;;;;;;;11.57;83.62;100879.56;5114779;28;20434;-88
2022/11/06 09:32:51;;;;;;;4.15;0.98;;;;;;;11.51;83.69;100855.97;5114380;28;20036;-87
2022/11/06 09:35:20;;;;;;;5.03;1.60;;;;;;;11.49;83.18;100862.69;5131147;27;20039;-87
2022/11/06 09:37:46;;;;;;;6.50;1.00;;;;;;;11.52;82.53;100868.50;5114146;28;20047;-87
2022/11/06 09:40:38;;;;;;;7.43;1.15;;;;;;;11.50;83.24;100856.19;5114375;28;20383;-87
2022/11/06 09:43:22;;;;;;;3.10;1.00;;;;;;;11.60;83.29;100861.97;5114598;28;20475;-87
2022/11/06 09:45:49;;;;;;;5.05;1.20;;;;;;;11.87;82.25;100872.59;5114464;28;20528;-87
2022/11/06 09:48:37;;;;;;;4.00;1.00;;;;;;;12.08;82.13;100857.78;5131491;27;20464;-87
2022/11/06 09:51:05;;;;;;;4.33;1.00;;;;;;;12.08;80.04;100857.78;5114231;28;20138;-86
2022/11/06 09:53:43;;;;;;;6.07;0.88;;;;;;;11.98;81.02;100858.31;5113987;28;20058;-87
2022/11/06 09:56:11;;;;;;;4.55;1.10;;;;;;;11.82;81.20;100872.44;5114333;28;20538;-87
2022/11/06 09:58:42;;;;;;;5.50;1.25;;;;;;;11.90;80.95;100855.88;5130749;27;20498;-88
2022/11/06 10:01:49;;;;;;;3.92;0.90;;;;;;;12.10;81.67;100851.06;5114884;28;20512;-87
2022/11/06 10:04:35;;;;;;;5.97;1.13;;;;;;;12.29;80.27;100851.91;5084203;28;20510;-87
2022/11/06 10:07:03;;;;;;;3.92;1.00;;;;;;;12.28;78.70;100849.41;5115570;28;20035;-87
2022/11/06 10:09:28;;;;;;;4.05;1.00;;;;;;;12.32;79.31;100845.19;5113897;28;20048;-88
2022/11/06 10:12:08;;;;;;;4.45;1.10;;;;;;;12.46;78.87;100852.13;5113442;28;20161;-87
2022/11/06 10:15:01;;;;;;;4.30;1.00;;;;;;;12.46;78.48;100840.44;5113425;28;20396;-87
2022/11/06 10:18:11;;;;;;;4.75;1.05;;;;;;;12.35;78.58;100838.47;5113953;28;20092;-87
2022/11/06 10:21:03;;;;;;;4.63;0.75;;;;;;;12.12;78.63;100834.53;5113345;28;20042;-86
2022/11/06 10:23:55;;;;;;;4.93;1.30;;;;;;;11.98;78.68;100833.84;5102145;28;20558;-86
2022/11/06 10:26:35;;;;;;;6.57;1.55;;;;;;;11.98;78.71;100828.41;5112995;28;20047;-87
2022/11/06 10:29:33;;;;;;;4.13;1.10;;;;;;;12.09;79.54;100834.97;5113233;28;20486;-87
2022/11/06 10:32:20;;;;;;;11.13;1.48;;;;;;;12.11;77.95;100839.13;5113645;28;20039;-87
2022/11/06 10:34:51;;;;;;;3.28;1.00;;;;;;;12.10;77.60;100825.75;5113484;28;20472;-86
2022/11/06 10:37:25;;;;;;;8.80;1.30;;;;;;;12.05;78.34;100822.91;5112385;28;20044;-86
2022/11/06 10:39:53;;;;;;;3.65;1.08;;;;;;;12.10;78.23;100817.59;5130134;27;20046;-87
2022/11/06 10:42:29;;;;;;;5.80;1.10;;;;;;;12.20;77.07;100812.47;5113116;28;20449;-87
2022/11/06 10:44:58;;;;;;;4.13;1.00;;;;;;;12.28;76.78;100803.16;5115426;28;20131;-86
2022/11/06 10:47:33;;;;;;;6.53;0.85;;;;;;;12.44;76.94;100799.00;5130245;27;20382;-87
2022/11/06 10:50:07;;;;;;;4.15;1.17;;;;;;;12.70;76.14;100792.38;5114516;27;20097;-87
2022/11/06 10:52:41;;;;;;;3.88;1.08;;;;;;;12.92;74.67;100783.69;5113917;27;20112;-87
2022/11/06 10:55:43;;;;;;;4.37;1.23;;;;;;;13.30;74.92;100779.72;5112780;28;20098;-86
2022/11/06 10:58:35;;;;;;;4.72;1.20;;;;;;;13.91;72.62;100768.63;5112783;28;20043;-87
2022/11/06 11:01:04;;;;;;;5.03;0.80;;;;;;;14.28;68.34;100755.47;5113856;28;20062;-87
2022/11/06 11:03:41;;;;;;;7.22;1.20;;;;;;;14.06;69.47;100751.75;5130590;27;20044;-87
2022/11/06 11:06:10;;;;;;;4.85;1.17;;;;;;;13.81;70.13;100750.13;5113025;28;20044;-87
2022/11/06 11:08:45;;;;;;;3.40;0.90;;;;;;;13.76;69.47;100753.56;5129952;27;20528;-87
2022/11/06 11:11:19;;;;;;;5.53;0.98;;;;;;;13.48;70.13;100740.69;5112922;28;20085;-86
2022/11/06 11:14:04;;;;;;;4.20;1.00;;;;;;;13.57;70.86;100746.56;5113678;28;20475;-87
2022/11/06 11:16:36;;;;;;;3.33;0.80;;;;;;;13.48;70.52;100749.66;5112493;28;20551;-86
2022/11/06 11:19:34;;;;;;;5.78;1.02;;;;;;;13.31;71.38;100763.13;5129849;28;20040;-87
2022/11/06 11:22:15;;;;;;;6.73;1.37;;;;;;;13.07;71.74;100742.41;5113077;28;20035;-85
2022/11/06 11:25:07;;;;;;;2.97;1.10;;;;;;;13.12;71.92;100743.34;5112326;28;20047;-86
2022/11/06 11:27:44;;;;;;;6.43;1.10;;;;;;;13.15;71.83;100736.59;5105897;28;20048;-86
2022/11/06 11:30:28;;;;;;;6.55;1.15;;;;;;;13.03;71.35;100738.47;5113944;28;20039;-86
2022/11/06 11:32:56;;;;;;;4.13;1.10;;;;;;;12.97;71.51;100738.31;5129978;28;20035;-86
2022/11/06 11:35:30;;;;;;;2.93;0.90;;;;;;;12.93;71.45;100730.88;5113499;28;20046;-86
2022/11/06 11:38:14;;;;;;;4.80;1.10;;;;;;;12.76;70.89;100722.56;5113677;28;20039;-86
2022/11/06 11:40:42;;;;;;;8.18;1.63;;;;;;;12.69;70.86;100725.38;5129948;28;20042;-86
2022/11/06 11:43:31;;;;;;;3.97;0.90;;;;;;;12.66;70.77;100719.56;5129651;28;20399;-86
2022/11/06 11:46:07;;;;;;;5.00;0.95;;;;;;;12.50;70.96;100721.06;5112762;28;20468;-86
2022/11/06 11:48:54;;;;;;;4.60;0.80;;;;;;;12.44;71.46;100714.63;5113190;28;20035;-86
2022/11/06 11:51:49;;;;;;;5.97;1.08;;;;;;;12.48;71.26;100717.75;5117339;28;20040;-86
2022/11/06 11:54:22;;;;;;;7.05;1.13;;;;;;;12.46;70.05;100709.81;5117092;28;20479;-86
2022/11/06 11:57:05;;;;;;;3.90;0.95;;;;;;;12.42;70.94;100700.44;5134349;27;20043;-87
2022/11/06 11:59:46;;;;;;;3.58;1.30;;;;;;;12.40;70.92;100694.38;5116050;28;20441;-86
2022/11/06 12:02:28;;;;;;;4.50;1.10;;;;;;;12.38;71.24;100685.63;5118195;28;20035;-86
2022/11/06 12:05:09;;;;;;;8.55;1.10;;;;;;;12.40;71.16;100687.06;5116231;28;20101;-86
2022/11/06 12:07:51;;;;;;;5.60;0.80;;;;;;;12.50;70.93;100672.88;5117443;28;20085;-86
2022/11/06 12:10:24;;;;;;;9.07;1.25;;;;;;;12.74;69.41;100670.22;5117056;28;20048;-86
2022/11/06 12:12:51;;;;;;;5.78;0.95;;;;;;;12.74;68.30;100656.59;5117169;28;20031;-86
2022/11/06 12:15:20;;;;;;;6.10;0.97;;;;;;;12.60;69.16;100659.53;5116811;28;20042;-86
2022/11/06 12:18:04;;;;;;;5.18;0.93;;;;;;;12.55;68.90;100653.13;5132881;27;20088;-86